aviador You're here:

CYBC Decoded Metar

BAIE COMEAU in QC, CANADA
Report Time2018-06-22 22:00:00
UTC Time2018-06-22 23:00:41
Flight Rules vfr VFR
Wind240° at 18 Gusting to 25 kt
W.Decomp.*RWY 28: 16.9 kt HW 6.2 kt LCW
W.Rank240° ranks 1
Current wind is above 240° avg. (12.3)
Visibility9999 m
Phenomena:N/A
Clouds:Scattered 090 Hf
Scattered 110 Hf
Expected CloudBase > 4,400 ft AGL from Temp-Dew spread
CeilingNone
Temp17°C (ISA +2)
Dew Point06°C (49% RH)
AAT9.6°C
QNH1009 hPa
Density Alt587 ft
Elevation72 ft
Report Wrong Elevation
Raw Report
CYBC 222200Z AUTO 24018G25KT 9SM SCT090 SCT110 17/06 A2981 RMK
SLP096 DENSITY ALT 400FT=

Extra information for CYBC:More info

Metar Taf Metar & Taf Last 4 Metars F.Rules Stats Wind Profile Meteogram Temp Stats Airport Information Weather charts Add Link Nearby VenuesMetar ALERT Operation Metar Decoded Social comments